Time;durP1;ratioP1;P1;durP2;ratioP2;P2;SDS_P1;SDS_P2;PMS_P1;PMS_P2;Temp;Humidity;BMP_temperature;BMP_pressure;BME280_temperature;BME280_humidity;BME280_pressure;Samples;Min_cycle;Max_cycle;Signal;HPM_P1;HPM_P2
2023/08/01 00:01:23;;;;;;;6.38;5.40;;;;;;;19.23;100.00;97111.38;5035904;28;20527;-73
2023/08/01 00:03:49;;;;;;;11.63;5.93;;;;;;;19.17;100.00;97108.44;5053330;28;20039;-73
2023/08/01 00:06:14;;;;;;;14.63;7.68;;;;;;;19.13;100.00;97104.38;5053333;28;20451;-73
2023/08/01 00:08:40;;;;;;;13.55;9.10;;;;;;;19.07;100.00;97102.28;5068643;28;20550;-73
2023/08/01 00:11:05;;;;;;;10.88;7.25;;;;;;;18.89;100.00;97097.75;5068312;28;20036;-73
2023/08/01 00:13:31;;;;;;;15.48;7.72;;;;;;;18.80;100.00;97109.53;5068692;28;20514;-73
2023/08/01 00:15:56;;;;;;;10.27;6.53;;;;;;;18.65;100.00;97111.09;5052720;28;20040;-73
2023/08/01 00:18:22;;;;;;;9.38;6.90;;;;;;;18.68;100.00;97108.06;5053356;28;20029;-73
2023/08/01 00:20:47;;;;;;;9.38;7.10;;;;;;;18.72;100.00;97101.34;5052848;28;20094;-73
2023/08/01 00:23:13;;;;;;;9.95;6.47;;;;;;;18.60;100.00;97099.03;5053100;28;20137;-73
2023/08/01 00:25:38;;;;;;;10.38;6.20;;;;;;;18.50;100.00;97096.38;5035309;28;20408;-74
2023/08/01 00:28:04;;;;;;;7.72;6.03;;;;;;;18.37;100.00;97096.75;5034779;28;20052;-73
2023/08/01 00:30:29;;;;;;;9.13;6.45;;;;;;;18.28;100.00;97107.63;5053072;28;20032;-73
2023/08/01 00:32:55;;;;;;;9.15;6.28;;;;;;;18.17;100.00;97100.59;5052841;28;20470;-73
2023/08/01 00:35:20;;;;;;;10.27;6.25;;;;;;;18.11;100.00;97095.81;5034986;28;20035;-73
2023/08/01 00:37:46;;;;;;;11.18;6.47;;;;;;;18.07;100.00;97101.66;5044288;28;20461;-73
2023/08/01 00:40:12;;;;;;;23.83;7.13;;;;;;;18.05;100.00;97104.53;5038072;28;20063;-73
2023/08/01 00:42:38;;;;;;;14.63;6.15;;;;;;;17.99;100.00;97101.56;5055054;28;20016;-73
2023/08/01 00:45:04;;;;;;;13.45;6.00;;;;;;;18.05;100.00;97101.81;5054818;28;20554;-73
2023/08/01 00:47:30;;;;;;;7.43;5.70;;;;;;;18.09;100.00;97096.97;5054777;28;20064;-73
2023/08/01 00:49:55;;;;;;;7.55;6.00;;;;;;;18.16;100.00;97098.03;5072415;28;20055;-73
2023/08/01 00:52:21;;;;;;;6.68;5.50;;;;;;;18.06;100.00;97097.25;5072701;28;20105;-73
2023/08/01 00:54:47;;;;;;;6.97;5.55;;;;;;;18.02;100.00;97090.44;5088067;28;20031;-73
2023/08/01 00:57:12;;;;;;;13.63;6.15;;;;;;;17.87;100.00;97082.81;5054382;28;20401;-73
2023/08/01 00:59:38;;;;;;;7.35;5.75;;;;;;;18.02;100.00;97090.44;5054696;28;20534;-73
2023/08/01 01:02:04;;;;;;;6.80;5.55;;;;;;;18.03;100.00;97092.13;5054379;28;20154;-73
2023/08/01 01:04:29;;;;;;;6.00;5.40;;;;;;;17.96;100.00;97089.22;5072239;28;20020;-73
2023/08/01 01:07:03;;;;;;;7.82;5.72;;;;;;;17.91;100.00;97093.34;5053491;28;20531;-73
2023/08/01 01:09:31;;;;;;;9.13;6.00;;;;;;;17.85;100.00;97084.84;5054643;28;20143;-73
2023/08/01 01:11:57;;;;;;;8.35;5.85;;;;;;;17.84;100.00;97080.41;5054634;28;20033;-73
2023/08/01 01:14:22;;;;;;;8.57;5.32;;;;;;;17.93;100.00;97072.41;5054515;28;20082;-73
2023/08/01 01:16:48;;;;;;;9.02;5.80;;;;;;;17.95;100.00;97067.69;5071889;28;20031;-73
2023/08/01 01:19:13;;;;;;;6.40;5.72;;;;;;;17.95;100.00;97073.97;5071803;28;20028;-73
2023/08/01 01:21:40;;;;;;;7.30;5.80;;;;;;;17.90;100.00;97072.72;5053984;28;20025;-73
2023/08/01 01:24:07;;;;;;;7.47;6.18;;;;;;;17.79;100.00;97074.63;5054192;28;20035;-73
2023/08/01 01:26:33;;;;;;;8.23;6.30;;;;;;;17.74;100.00;97076.94;5054080;28;20025;-73
2023/08/01 01:28:59;;;;;;;8.93;6.35;;;;;;;17.70;100.00;97072.81;5053766;28;20041;-73
2023/08/01 01:31:25;;;;;;;8.50;5.88;;;;;;;17.72;100.00;97065.41;5053807;28;20024;-73
2023/08/01 01:33:52;;;;;;;10.70;7.20;;;;;;;17.70;100.00;97071.97;5053701;28;20031;-73
2023/08/01 01:36:18;;;;;;;7.38;6.10;;;;;;;17.68;100.00;97071.28;5053807;28;20097;-73
2023/08/01 01:38:44;;;;;;;8.30;7.00;;;;;;;17.62;100.00;97075.44;5071177;28;20123;-73
2023/08/01 01:41:11;;;;;;;8.38;6.38;;;;;;;17.64;100.00;97078.84;5071428;28;20514;-73
2023/08/01 01:43:37;;;;;;;8.02;6.63;;;;;;;17.63;100.00;97084.38;5071553;28;20468;-73
2023/08/01 01:46:03;;;;;;;14.35;6.60;;;;;;;17.60;100.00;97080.13;5071144;28;20376;-73
2023/08/01 01:48:28;;;;;;;8.25;6.53;;;;;;;17.59;100.00;97069.47;5071532;28;20039;-73
2023/08/01 01:50:54;;;;;;;11.38;6.57;;;;;;;17.56;100.00;97076.03;5071212;28;20035;-73
2023/08/01 01:53:19;;;;;;;8.82;6.30;;;;;;;17.63;100.00;97074.41;5053349;28;20073;-73
2023/08/01 01:55:45;;;;;;;7.53;6.30;;;;;;;17.60;100.00;97072.00;5071520;28;20013;-73
2023/08/01 01:58:10;;;;;;;8.52;6.18;;;;;;;17.64;100.00;97073.41;5071124;28;20016;-73
2023/08/01 02:00:36;;;;;;;9.10;5.60;;;;;;;17.68;100.00;97076.69;5053227;28;20403;-73
2023/08/01 02:03:02;;;;;;;9.85;5.85;;;;;;;17.56;100.00;97076.03;5071074;28;20017;-73
2023/08/01 02:05:29;;;;;;;8.05;5.85;;;;;;;17.52;100.00;97071.88;5071085;28;20041;-73
2023/08/01 02:07:54;;;;;;;6.40;5.75;;;;;;;17.49;100.00;97072.19;5052919;28;20038;-73
2023/08/01 02:10:20;;;;;;;7.45;6.38;;;;;;;17.46;100.00;97063.50;5086440;28;20329;-73
2023/08/01 02:12:45;;;;;;;7.32;5.97;;;;;;;17.57;100.00;97080.44;5071022;28;20028;-73
2023/08/01 02:15:11;;;;;;;10.30;6.32;;;;;;;17.55;100.00;97077.03;5052807;28;20468;-74
2023/08/01 02:17:36;;;;;;;9.00;6.32;;;;;;;17.44;100.00;97079.91;5070902;28;20024;-73
2023/08/01 02:20:02;;;;;;;8.18;6.07;;;;;;;17.47;100.00;97078.75;5070748;28;20021;-73
2023/08/01 02:22:28;;;;;;;8.88;6.13;;;;;;;17.45;100.00;97067.22;5070881;28;20443;-73
2023/08/01 02:24:53;;;;;;;8.88;6.05;;;;;;;17.45;100.00;97070.78;5070628;28;20036;-73
2023/08/01 02:27:19;;;;;;;10.02;6.22;;;;;;;17.29;100.00;97065.13;5069498;28;20040;-73
2023/08/01 02:29:44;;;;;;;8.82;6.30;;;;;;;17.30;100.00;97077.66;5070745;28;20468;-73
2023/08/01 02:32:10;;;;;;;8.50;6.28;;;;;;;17.13;100.00;97083.84;5052448;28;20092;-73
2023/08/01 02:34:35;;;;;;;8.00;6.53;;;;;;;17.13;100.00;97086.56;5070867;28;20459;-73
2023/08/01 02:37:01;;;;;;;8.50;6.55;;;;;;;17.10;100.00;97074.16;5070350;28;20070;-73
2023/08/01 02:39:26;;;;;;;10.07;6.32;;;;;;;17.03;100.00;97081.19;5070678;28;20028;-73
2023/08/01 02:41:52;;;;;;;10.30;6.07;;;;;;;17.16;100.00;97078.16;5070526;28;20032;-73
2023/08/01 02:44:17;;;;;;;7.50;5.85;;;;;;;17.31;100.00;97082.09;5070336;28;20028;-73
2023/08/01 02:46:43;;;;;;;6.68;5.47;;;;;;;17.34;100.00;97085.34;5070352;28;20527;-73
2023/08/01 02:49:08;;;;;;;9.40;5.72;;;;;;;17.27;100.00;97081.53;5070085;28;20040;-73
2023/08/01 02:51:34;;;;;;;9.48;5.80;;;;;;;17.22;100.00;97086.53;5070573;28;20059;-73
2023/08/01 02:53:59;;;;;;;9.32;5.43;;;;;;;17.20;100.00;97071.44;5070197;28;20104;-73
2023/08/01 02:56:25;;;;;;;13.02;5.63;;;;;;;17.17;100.00;97085.25;5070249;28;20099;-73
2023/08/01 02:58:51;;;;;;;10.13;5.97;;;;;;;17.09;100.00;97079.72;5070410;28;20032;-72
2023/08/01 03:01:17;;;;;;;9.35;5.28;;;;;;;17.05;100.00;97079.16;5070393;28;20036;-73
2023/08/01 03:03:42;;;;;;;7.40;4.95;;;;;;;17.09;100.00;97079.72;5052390;28;20453;-73
2023/08/01 03:06:08;;;;;;;6.63;5.05;;;;;;;17.03;100.00;97070.38;5070261;28;20028;-73
2023/08/01 03:08:34;;;;;;;7.30;4.60;;;;;;;16.86;100.00;97067.56;5052193;28;20404;-73
2023/08/01 03:10:59;;;;;;;7.65;5.03;;;;;;;16.94;100.00;97081.19;5070259;28;20086;-73
2023/08/01 03:13:25;;;;;;;7.10;5.38;;;;;;;16.84;100.00;97077.66;5052497;28;20017;-73
2023/08/01 03:15:50;;;;;;;7.68;5.70;;;;;;;16.77;100.00;97074.66;5070271;28;20021;-73
2023/08/01 03:18:16;;;;;;;7.30;5.38;;;;;;;16.85;100.00;97076.66;5070230;28;20024;-72
2023/08/01 03:20:41;;;;;;;10.10;6.30;;;;;;;16.70;100.00;97071.69;5069983;28;20396;-72
2023/08/01 03:23:07;;;;;;;16.35;6.57;;;;;;;16.61;100.00;97069.84;5069920;28;20097;-72
2023/08/01 03:25:32;;;;;;;14.70;7.47;;;;;;;16.57;100.00;97081.09;5052251;28;20024;-72
2023/08/01 03:27:58;;;;;;;23.92;15.05;;;;;;;16.74;100.00;97081.22;5070059;28;20525;-73
2023/08/01 03:30:24;;;;;;;9.73;6.45;;;;;;;16.70;100.00;97085.19;5071223;28;20039;-73
2023/08/01 03:32:49;;;;;;;28.50;7.22;;;;;;;16.54;100.00;97068.75;5056152;28;20495;-73
2023/08/01 03:35:15;;;;;;;13.20;6.80;;;;;;;16.58;100.00;97086.34;5073722;28;20032;-72
2023/08/01 03:37:40;;;;;;;11.90;6.82;;;;;;;16.54;100.00;97079.56;5073847;28;20075;-73
2023/08/01 03:40:10;;;;;;;10.25;6.50;;;;;;;16.46;100.00;97082.06;5073919;28;20559;-73
2023/08/01 03:42:36;;;;;;;17.20;8.98;;;;;;;16.40;100.00;97082.63;5073856;28;20021;-73
2023/08/01 03:45:02;;;;;;;22.90;8.80;;;;;;;16.46;100.00;97087.47;5055622;28;20021;-73
2023/08/01 03:47:27;;;;;;;17.90;8.23;;;;;;;16.49;100.00;97087.16;5055674;28;20028;-73
2023/08/01 03:49:53;;;;;;;19.23;8.65;;;;;;;16.48;100.00;97084.63;5073650;28;20025;-78
2023/08/01 03:52:19;;;;;;;31.48;16.17;;;;;;;16.55;100.00;97072.31;5055443;28;20467;-72
2023/08/01 03:54:44;;;;;;;13.43;7.20;;;;;;;16.53;100.00;97085.03;5055793;28;20025;-73
2023/08/01 03:57:10;;;;;;;17.02;8.93;;;;;;;16.61;100.00;97088.75;5055465;28;20051;-73
2023/08/01 03:59:36;;;;;;;22.17;9.25;;;;;;;16.59;100.00;97085.38;5073222;28;20064;-74
2023/08/01 04:02:01;;;;;;;30.10;10.32;;;;;;;16.69;100.00;97077.25;5050991;28;20032;-78
2023/08/01 04:04:27;;;;;;;26.02;7.90;;;;;;;16.70;100.00;97078.97;5055284;28;20481;-73
2023/08/01 04:06:52;;;;;;;21.20;10.13;;;;;;;16.75;100.00;97074.84;5055485;28;20063;-74
2023/08/01 04:09:18;;;;;;;19.25;8.32;;;;;;;16.75;100.00;97085.63;5073064;28;20142;-75
2023/08/01 04:11:43;;;;;;;27.50;10.30;;;;;;;16.86;100.00;97090.00;5073344;28;20086;-72
2023/08/01 04:14:09;;;;;;;9.63;6.78;;;;;;;16.93;100.00;97084.88;5055238;28;20085;-68
2023/08/01 04:16:34;;;;;;;13.38;7.22;;;;;;;17.03;100.00;97083.88;5072970;28;20032;-71
2023/08/01 04:19:00;;;;;;;13.68;6.30;;;;;;;17.08;100.00;97083.41;5055325;28;20024;-70
2023/08/01 04:21:25;;;;;;;11.18;6.05;;;;;;;17.19;100.00;97086.81;5054926;28;20449;-70
2023/08/01 04:23:51;;;;;;;16.60;6.80;;;;;;;17.19;100.00;97085.97;5073153;28;20024;-69
2023/08/01 04:26:16;;;;;;;21.65;6.88;;;;;;;17.29;100.00;97093.03;5038209;28;20055;-70
2023/08/01 04:28:42;;;;;;;14.63;7.82;;;;;;;17.17;100.00;97090.66;5054794;28;20117;-71
2023/08/01 04:31:07;;;;;;;18.00;8.68;;;;;;;17.39;100.00;97093.00;5072827;28;20125;-72
2023/08/01 04:33:33;;;;;;;9.52;7.20;;;;;;;18.15;100.00;97093.66;5072458;28;20024;-72
2023/08/01 04:35:58;;;;;;;12.98;7.30;;;;;;;19.00;100.00;97082.25;5054766;28;20024;-72
2023/08/01 04:38:23;;;;;;;9.02;6.68;;;;;;;19.43;100.00;97074.06;5054536;28;20516;-72
2023/08/01 04:40:49;;;;;;;13.30;7.40;;;;;;;19.25;100.00;97070.56;5072497;28;20450;-71
2023/08/01 04:43:15;;;;;;;12.85;6.90;;;;;;;18.93;100.00;97071.19;5053400;28;20029;-71
2023/08/01 04:45:40;;;;;;;15.88;6.95;;;;;;;18.59;100.00;97078.34;5087998;28;20032;-72
2023/08/01 04:48:06;;;;;;;15.77;7.38;;;;;;;18.52;100.00;97080.81;5072659;28;20526;-71
2023/08/01 04:50:31;;;;;;;16.15;8.25;;;;;;;18.48;100.00;97078.56;5072122;28;20029;-72
2023/08/01 04:52:57;;;;;;;11.60;7.85;;;;;;;18.36;100.00;97086.06;5087847;28;20029;-71
2023/08/01 04:55:22;;;;;;;10.57;7.45;;;;;;;18.36;100.00;97091.50;5072451;28;20101;-71
2023/08/01 04:57:48;;;;;;;14.55;7.93;;;;;;;18.45;100.00;97079.72;5072322;28;20497;-72
2023/08/01 05:00:14;;;;;;;15.88;9.07;;;;;;;18.56;100.00;97089.50;5054400;28;20032;-71
2023/08/01 05:02:39;;;;;;;10.32;7.18;;;;;;;18.67;100.00;97081.97;5067614;28;20032;-71
2023/08/01 05:05:05;;;;;;;14.88;7.75;;;;;;;18.73;100.00;97086.78;5053336;28;20033;-72
2023/08/01 05:07:31;;;;;;;12.10;6.75;;;;;;;18.72;100.00;97085.09;5054002;28;20035;-71
2023/08/01 05:09:56;;;;;;;10.73;6.70;;;;;;;18.80;100.00;97076.16;5072111;28;20032;-71
2023/08/01 05:12:22;;;;;;;11.77;6.75;;;;;;;18.89;100.00;97076.06;5072141;28;20028;-72
2023/08/01 05:14:47;;;;;;;12.40;6.30;;;;;;;18.99;100.00;97080.53;5071789;28;20105;-72
2023/08/01 05:17:13;;;;;;;8.02;6.10;;;;;;;19.18;100.00;97080.31;5054266;28;20059;-72
2023/08/01 05:19:38;;;;;;;12.20;6.70;;;;;;;19.08;100.00;97082.28;5071776;28;20474;-72
2023/08/01 05:22:04;;;;;;;12.32;7.50;;;;;;;18.95;100.00;97077.28;5054336;28;20101;-72
2023/08/01 05:24:30;;;;;;;13.07;7.25;;;;;;;19.09;100.00;97094.84;5072198;28;20486;-72
2023/08/01 05:26:55;;;;;;;15.00;7.40;;;;;;;19.37;100.00;97086.41;5053885;28;20062;-73
2023/08/01 05:29:21;;;;;;;13.80;7.20;;;;;;;19.51;100.00;97082.25;5053562;28;20024;-73
2023/08/01 05:31:46;;;;;;;10.75;6.65;;;;;;;19.93;100.00;97093.16;5071405;28;20487;-71
2023/08/01 05:34:12;;;;;;;14.40;6.30;;;;;;;20.93;100.00;97076.69;5071865;28;20032;-71
2023/08/01 05:36:37;;;;;;;8.15;5.90;;;;;;;22.67;100.00;97076.41;5071438;28;20025;-72
2023/08/01 05:39:03;;;;;;;13.73;6.15;;;;;;;24.20;100.00;97060.38;5071300;28;21411;-72
2023/08/01 05:41:29;;;;;;;25.50;6.55;;;;;;;25.66;100.00;97047.03;5053594;28;20029;-71
2023/08/01 05:43:54;;;;;;;17.23;9.73;;;;;;;26.35;100.00;97048.66;5053204;28;20032;-72
2023/08/01 05:46:20;;;;;;;9.60;5.15;;;;;;;27.14;100.00;97046.09;5053945;28;20025;-72
2023/08/01 05:48:45;;;;;;;7.70;5.30;;;;;;;26.92;100.00;97044.59;5071368;28;20028;-71
2023/08/01 05:51:11;;;;;;;8.30;5.20;;;;;;;27.18;100.00;97050.13;5044721;28;20036;-72
2023/08/01 05:53:36;;;;;;;13.88;5.13;;;;;;;27.09;99.87;97051.38;5051022;28;20464;-72
2023/08/01 05:56:02;;;;;;;11.05;4.95;;;;;;;27.42;100.00;97044.00;5033456;28;20040;-72
2023/08/01 05:58:28;;;;;;;9.88;4.50;;;;;;;28.04;93.29;97045.34;5033585;28;20489;-72
2023/08/01 06:00:53;;;;;;;16.42;7.03;;;;;;;29.22;85.16;97039.25;5033156;28;20029;-72
2023/08/01 06:03:19;;;;;;;15.23;5.05;;;;;;;29.20;82.58;97041.34;5051175;28;20029;-71
2023/08/01 06:05:44;;;;;;;6.30;4.55;;;;;;;30.09;76.77;97035.44;5033396;28;20114;-74
2023/08/01 06:08:10;;;;;;;10.02;4.70;;;;;;;30.45;73.55;97018.91;5051166;28;20029;-72
2023/08/01 06:10:36;;;;;;;7.97;4.68;;;;;;;30.71;68.54;97025.94;5033160;28;20036;-72
2023/08/01 06:13:01;;;;;;;7.32;4.43;;;;;;;31.40;65.00;97022.56;5032830;28;20412;-72
2023/08/01 06:15:27;;;;;;;11.93;5.00;;;;;;;30.48;67.97;97032.22;5033004;28;20111;-72
2023/08/01 06:17:52;;;;;;;8.30;4.88;;;;;;;30.43;70.01;97026.53;5033049;28;20028;-72
2023/08/01 06:20:18;;;;;;;8.48;4.93;;;;;;;30.21;71.90;97044.63;5033150;28;20036;-72
2023/08/01 06:22:44;;;;;;;24.73;5.80;;;;;;;31.03;67.58;97023.81;5033030;28;20036;-72
2023/08/01 06:25:10;;;;;;;8.50;4.90;;;;;;;31.09;65.46;97020.09;5032823;28;20021;-72
2023/08/01 06:27:35;;;;;;;11.25;5.65;;;;;;;31.54;63.14;97017.66;5050665;28;20104;-72
2023/08/01 06:30:01;;;;;;;9.93;4.40;;;;;;;31.54;59.61;97003.81;5032537;28;20025;-71
2023/08/01 06:32:26;;;;;;;9.32;4.10;;;;;;;30.68;65.93;97017.28;5050536;28;20028;-71
2023/08/01 06:34:52;;;;;;;15.10;4.47;;;;;;;30.60;66.76;97016.56;5050334;28;20028;-72
2023/08/01 06:37:17;;;;;;;4.28;3.70;;;;;;;31.44;63.87;97012.69;5038105;28;20051;-71
2023/08/01 06:39:43;;;;;;;12.48;4.82;;;;;;;32.27;58.84;96998.56;5036007;28;20039;-71
2023/08/01 06:42:08;;;;;;;11.50;3.88;;;;;;;32.16;55.94;96999.44;5052273;28;20036;-71
2023/08/01 06:44:34;;;;;;;3.90;3.13;;;;;;;31.11;56.07;96995.81;5070506;28;20025;-72
2023/08/01 06:46:59;;;;;;;9.65;5.32;;;;;;;31.52;58.08;97004.06;5052188;28;20012;-71
2023/08/01 06:49:25;;;;;;;7.57;4.80;;;;;;;32.19;53.25;96987.88;5070368;28;20036;-72
2023/08/01 06:51:51;;;;;;;8.35;3.40;;;;;;;32.79;50.82;96977.22;5052216;28;20027;-72
2023/08/01 06:54:16;;;;;;;7.70;4.10;;;;;;;33.64;47.29;96972.31;5085955;28;20038;-72
2023/08/01 06:56:47;;;;;;;7.20;2.90;;;;;;;32.98;46.47;96969.50;5085984;28;20020;-72
2023/08/01 06:59:14;;;;;;;3.30;3.00;;;;;;;33.30;46.96;96967.84;5070168;28;20029;-71
2023/08/01 07:01:40;;;;;;;5.18;2.92;;;;;;;33.48;47.16;96970.38;5052539;28;20480;-71
2023/08/01 07:04:06;;;;;;;3.05;2.75;;;;;;;34.01;44.76;96963.38;5052429;28;20559;-72
2023/08/01 07:06:31;;;;;;;17.77;5.03;;;;;;;35.02;43.89;96953.47;5051733;28;20108;-71
2023/08/01 07:08:57;;;;;;;9.13;4.10;;;;;;;35.24;42.31;96949.53;5070150;28;20438;-72
2023/08/01 07:11:23;;;;;;;8.15;5.10;;;;;;;34.99;42.73;96945.66;5070121;28;20017;-73
2023/08/01 07:13:48;;;;;;;3.70;2.75;;;;;;;33.99;44.04;96960.03;5052470;28;20024;-72
2023/08/01 07:16:14;;;;;;;6.00;3.35;;;;;;;34.74;42.94;96949.88;5052199;28;20041;-72
2023/08/01 07:18:40;;;;;;;5.28;3.10;;;;;;;34.64;42.50;96951.72;5052312;28;20023;-72
2023/08/01 07:21:05;;;;;;;8.43;3.13;;;;;;;33.63;44.41;96948.44;5052616;28;20027;-72
2023/08/01 07:23:34;;;;;;;7.43;3.20;;;;;;;34.29;44.03;96954.91;5070113;28;20033;-72
2023/08/01 07:25:59;;;;;;;4.88;3.13;;;;;;;35.16;42.00;96951.97;5052196;28;20035;-71
2023/08/01 07:28:25;;;;;;;8.85;2.95;;;;;;;35.55;41.93;96952.53;5052119;28;20028;-72
2023/08/01 07:31:04;;;;;;;5.25;3.38;;;;;;;35.91;40.96;96954.47;5070303;28;20025;-71
2023/08/01 07:33:30;;;;;;;7.32;3.00;;;;;;;35.83;40.04;96947.47;5052315;28;20040;-71
2023/08/01 07:35:55;;;;;;;3.25;2.92;;;;;;;36.59;39.45;96941.44;5070157;28;20493;-72
2023/08/01 07:38:21;;;;;;;4.75;3.55;;;;;;;37.00;37.92;96942.38;5051959;28;20465;-72
2023/08/01 07:40:46;;;;;;;3.70;3.40;;;;;;;37.69;36.25;96937.06;5052308;28;20427;-72
2023/08/01 07:43:12;;;;;;;6.15;2.88;;;;;;;37.70;36.51;96928.41;5035476;28;20446;-71
2023/08/01 07:45:38;;;;;;;5.38;2.80;;;;;;;37.60;37.55;96936.78;5069767;28;20036;-72
2023/08/01 07:48:04;;;;;;;4.57;3.08;;;;;;;36.19;39.04;96930.94;5051986;28;20131;-72
2023/08/01 07:50:30;;;;;;;7.53;3.22;;;;;;;36.04;39.19;96933.66;5068460;28;20024;-72
2023/08/01 07:52:55;;;;;;;5.72;3.10;;;;;;;36.42;38.44;96927.72;5069885;28;20051;-71
2023/08/01 07:55:21;;;;;;;9.38;3.60;;;;;;;36.86;37.60;96922.50;5035186;28;20060;-72
2023/08/01 07:57:50;;;;;;;4.90;3.22;;;;;;;37.83;36.28;96929.78;5051474;28;20111;-71
2023/08/01 08:00:16;;;;;;;6.28;3.30;;;;;;;38.61;35.03;96911.31;5050989;28;20118;-72
2023/08/01 08:02:42;;;;;;;6.35;3.10;;;;;;;37.65;36.21;96910.81;5069389;28;20028;-71
2023/08/01 08:05:08;;;;;;;5.32;3.13;;;;;;;38.20;34.75;96907.03;5051525;28;20028;-72
2023/08/01 08:07:34;;;;;;;6.70;3.40;;;;;;;36.64;34.85;96896.84;5051193;28;20028;-71
2023/08/01 08:10:00;;;;;;;3.53;2.75;;;;;;;34.56;38.04;96896.56;5051542;28;20090;-71
2023/08/01 08:12:25;;;;;;;8.15;2.63;;;;;;;35.92;36.18;96896.81;5051637;28;20484;-71
2023/08/01 08:14:51;;;;;;;6.40;2.60;;;;;;;35.83;36.15;96883.44;5051307;28;20490;-70
2023/08/01 08:17:16;;;;;;;3.58;3.00;;;;;;;36.37;36.01;96888.66;5071571;28;20028;-70
2023/08/01 08:19:42;;;;;;;5.13;3.20;;;;;;;35.85;37.00;96897.06;5072692;28;20035;-71
2023/08/01 08:22:07;;;;;;;4.10;2.92;;;;;;;34.43;38.80;96889.47;5073086;28;20028;-72
2023/08/01 08:24:33;;;;;;;6.78;2.90;;;;;;;35.14;38.20;96896.59;5072520;28;20071;-72
2023/08/01 08:26:58;;;;;;;5.32;3.47;;;;;;;35.67;37.10;96881.66;5072841;28;20047;-71
2023/08/01 08:29:24;;;;;;;6.38;2.65;;;;;;;36.83;36.37;96882.06;5054849;28;20028;-71
2023/08/01 08:31:50;;;;;;;4.68;2.67;;;;;;;37.44;34.45;96876.47;5072535;28;20043;-71
2023/08/01 08:34:15;;;;;;;5.00;2.60;;;;;;;36.58;35.28;96870.06;5071178;28;20040;-71
2023/08/01 08:36:41;;;;;;;3.47;2.88;;;;;;;37.57;34.61;96881.50;5037360;28;20038;-72
2023/08/01 08:39:07;;;;;;;9.10;4.30;;;;;;;38.32;34.05;96872.03;5018154;28;20048;-70
2023/08/01 08:41:37;;;;;;;5.10;2.63;;;;;;;38.66;32.32;96863.75;5052898;28;20033;-71
2023/08/01 08:44:07;;;;;;;5.40;2.88;;;;;;;37.22;34.02;96865.66;5035093;28;20021;-71
2023/08/01 08:46:34;;;;;;;3.95;2.88;;;;;;;38.43;32.77;96853.25;5035075;28;20037;-71
2023/08/01 08:49:00;;;;;;;4.88;2.22;;;;;;;38.76;31.62;96846.91;5034743;28;20133;-71
2023/08/01 08:51:29;;;;;;;5.18;2.45;;;;;;;38.99;31.23;96851.75;5034831;28;20029;-71
2023/08/01 08:53:57;;;;;;;4.03;2.25;;;;;;;41.25;29.19;96851.16;5034864;28;20500;-72
2023/08/01 08:56:23;;;;;;;4.22;2.22;;;;;;;42.06;28.14;96845.69;5034802;28;20027;-71
2023/08/01 08:58:49;;;;;;;7.50;2.50;;;;;;;41.88;28.65;96838.19;5034543;28;20025;-71
2023/08/01 09:01:15;;;;;;;6.85;2.10;;;;;;;37.83;31.48;96827.25;5018106;28;20032;-71
2023/08/01 09:03:40;;;;;;;5.55;3.78;;;;;;;38.94;30.90;96828.59;5034296;28;20558;-71
2023/08/01 09:06:15;;;;;;;2.55;2.35;;;;;;;39.44;30.17;96827.28;5034327;28;20021;-70
2023/08/01 09:08:50;;;;;;;3.72;2.78;;;;;;;38.95;30.71;96825.47;5034302;28;20025;-71
2023/08/01 09:11:16;;;;;;;2.92;2.40;;;;;;;40.95;28.72;96828.09;5034537;28;20021;-72
2023/08/01 09:13:41;;;;;;;4.82;2.50;;;;;;;41.46;28.44;96819.63;5051955;28;20404;-71
2023/08/01 09:16:08;;;;;;;5.25;2.67;;;;;;;41.60;27.81;96814.84;5034157;28;20025;-72
2023/08/01 09:18:33;;;;;;;4.80;3.35;;;;;;;41.96;28.09;96819.78;5017625;28;20055;-70
2023/08/01 09:21:02;;;;;;;4.30;2.40;;;;;;;41.84;27.92;96809.03;5034380;28;20037;-70
2023/08/01 09:23:27;;;;;;;3.78;2.20;;;;;;;43.69;25.59;96798.34;5034621;28;20073;-71
2023/08/01 09:25:53;;;;;;;2.40;2.20;;;;;;;43.69;25.41;96801.16;5033890;28;20057;-71
2023/08/01 09:28:20;;;;;;;2.08;1.75;;;;;;;43.46;25.70;96791.13;5051240;28;20045;-72
2023/08/01 09:30:51;;;;;;;8.13;2.60;;;;;;;41.31;27.56;96799.38;5033766;28;20036;-73
2023/08/01 09:33:17;;;;;;;4.50;2.28;;;;;;;41.42;27.64;96793.28;5034139;28;20476;-70
2023/08/01 09:35:46;;;;;;;3.63;2.13;;;;;;;42.47;26.49;96794.16;5017502;28;20048;-71
2023/08/01 09:38:15;;;;;;;3.20;2.65;;;;;;;40.74;28.44;96789.41;5029805;28;20056;-71
2023/08/01 09:40:42;;;;;;;5.00;2.47;;;;;;;40.53;28.75;96794.53;5037102;28;20024;-71
2023/08/01 09:43:08;;;;;;;5.78;2.63;;;;;;;40.25;29.16;96787.06;5071248;28;20024;-71
2023/08/01 09:45:34;;;;;;;4.65;2.28;;;;;;;40.30;28.98;96784.22;5053699;28;20101;-71
2023/08/01 09:48:00;;;;;;;2.67;2.30;;;;;;;41.16;27.89;96785.63;5053927;28;20033;-70
2023/08/01 09:50:26;;;;;;;4.05;2.80;;;;;;;41.22;28.08;96779.59;5071478;28;20028;-71
2023/08/01 09:52:54;;;;;;;5.38;3.00;;;;;;;40.85;28.31;96774.91;5053314;28;20115;-71
2023/08/01 09:55:33;;;;;;;4.57;2.45;;;;;;;39.31;30.28;96775.63;5054037;28;20055;-70
2023/08/01 09:57:59;;;;;;;6.93;3.92;;;;;;;40.63;28.30;96762.66;5053396;28;20373;-71
2023/08/01 10:00:29;;;;;;;4.50;2.75;;;;;;;39.68;29.29;96760.09;5053385;28;20032;-71
2023/08/01 10:03:00;;;;;;;3.33;2.55;;;;;;;41.54;28.03;96753.44;5036412;28;20032;-71
2023/08/01 10:05:29;;;;;;;9.30;2.28;;;;;;;41.69;27.61;96744.69;5071284;28;20016;-71
2023/08/01 10:07:58;;;;;;;4.97;3.28;;;;;;;42.34;27.18;96744.41;5053179;28;20393;-71
2023/08/01 10:10:25;;;;;;;9.98;2.33;;;;;;;42.34;26.92;96741.56;5053179;28;20017;-71
2023/08/01 10:12:50;;;;;;;2.50;2.20;;;;;;;43.22;26.12;96731.50;5053363;28;20077;-71
2023/08/01 10:15:16;;;;;;;3.05;2.30;;;;;;;44.51;25.59;96739.19;5052949;28;20028;-71
2023/08/01 10:17:42;;;;;;;2.50;2.20;;;;;;;45.41;24.74;96730.75;5070943;28;20016;-71
2023/08/01 10:20:08;;;;;;;3.75;2.03;;;;;;;45.58;24.30;96730.69;5070744;28;20438;-71
2023/08/01 10:22:34;;;;;;;3.10;2.80;;;;;;;44.76;24.49;96723.41;5071019;28;20043;-71
2023/08/01 10:25:00;;;;;;;2.35;2.10;;;;;;;44.68;24.99;96722.25;5070793;28;20484;-71
2023/08/01 10:27:25;;;;;;;2.95;2.38;;;;;;;45.26;24.38;96715.97;5069300;28;20400;-71
2023/08/01 10:30:01;;;;;;;2.30;2.10;;;;;;;46.33;24.13;96713.59;5052955;28;20030;-71
2023/08/01 10:32:35;;;;;;;5.28;3.30;;;;;;;47.20;22.28;96700.31;5036301;28;20052;-71
2023/08/01 10:35:01;;;;;;;5.70;2.30;;;;;;;47.55;22.58;96697.91;5070664;28;20078;-71
2023/08/01 10:37:27;;;;;;;2.70;2.50;;;;;;;47.49;22.02;96698.44;5052664;28;20050;-71
2023/08/01 10:39:57;;;;;;;7.68;3.20;;;;;;;46.53;22.36;96686.47;5051557;28;20032;-70
2023/08/01 10:42:23;;;;;;;3.72;3.28;;;;;;;46.27;22.63;96688.69;5052489;28;20499;-71
2023/08/01 10:44:48;;;;;;;3.90;2.47;;;;;;;47.15;22.29;96683.53;5070650;28;20033;-73
2023/08/01 10:47:14;;;;;;;3.40;2.80;;;;;;;47.76;22.03;96675.06;5052685;28;20032;-71
2023/08/01 10:49:44;;;;;;;3.80;2.13;;;;;;;48.44;21.30;96680.88;5086061;28;20476;-71
2023/08/01 10:52:26;;;;;;;2.78;2.55;;;;;;;46.93;22.12;96675.44;5036130;28;20039;-71
2023/08/01 10:55:03;;;;;;;2.08;1.85;;;;;;;46.28;22.76;96670.50;5053524;28;20036;-71
2023/08/01 10:57:35;;;;;;;4.03;2.17;;;;;;;45.67;23.29;96667.28;5052108;28;20036;-71
2023/08/01 11:00:01;;;;;;;4.68;2.65;;;;;;;45.82;23.00;96668.69;5052572;28;20113;-73
2023/08/01 11:02:28;;;;;;;2.13;1.90;;;;;;;46.26;22.93;96662.38;5052274;28;20586;-71
2023/08/01 11:05:00;;;;;;;2.65;2.30;;;;;;;45.64;22.52;96652.97;5070707;28;20112;-71
2023/08/01 11:07:26;;;;;;;2.47;2.20;;;;;;;45.33;23.16;96658.13;5070035;28;20111;-71
2023/08/01 11:10:21;;;;;;;2.22;1.98;;;;;;;45.58;22.26;96648.69;5052309;28;20034;-71
2023/08/01 11:12:47;;;;;;;4.93;2.80;;;;;;;45.38;23.02;96641.00;5052736;28;20044;-71
2023/08/01 11:15:14;;;;;;;5.30;2.10;;;;;;;44.79;23.30;96649.31;5052238;28;20408;-70
2023/08/01 11:17:41;;;;;;;5.72;2.10;;;;;;;45.36;23.30;96638.50;5069931;28;20029;-71
2023/08/01 11:20:11;;;;;;;5.32;2.55;;;;;;;46.09;22.93;96637.06;5085665;28;20020;-71
2023/08/01 11:22:37;;;;;;;2.38;2.00;;;;;;;46.11;22.26;96633.88;5035505;28;20032;-72